sensor_id;sensor_type;location;lat;lon;timestamp;pressure;altitude;pressure_sealevel;temperature;humidity
43745;BME280;29359;53.048;8.732;2023-02-22T00:01:12;101757.84;;;9.26;100.00
43745;BME280;29359;53.048;8.732;2023-02-22T00:03:35;101749.06;;;9.26;100.00
43745;BME280;29359;53.048;8.732;2023-02-22T00:05:39;101752.59;;;9.26;100.00
43745;BME280;29359;53.048;8.732;2023-02-22T00:07:42;101751.72;;;9.26;100.00
43745;BME280;29359;53.048;8.732;2023-02-22T00:09:44;101753.47;;;9.27;100.00
43745;BME280;29359;53.048;8.732;2023-02-22T00:11:47;101749.94;;;9.26;100.00
43745;BME280;29359;53.048;8.732;2023-02-22T00:13:49;101756.97;;;9.27;100.00
43745;BME280;29359;53.048;8.732;2023-02-22T00:15:50;101751.72;;;9.26;100.00
43745;BME280;29359;53.048;8.732;2023-02-22T00:17:53;101749.94;;;9.26;100.00
43745;BME280;29359;53.048;8.732;2023-02-22T00:19:55;101753.47;;;9.25;100.00
43745;BME280;29359;53.048;8.732;2023-02-22T00:21:56;101749.06;;;9.26;100.00
43745;BME280;29359;53.048;8.732;2023-02-22T00:23:58;101746.44;;;9.26;100.00
43745;BME280;29359;53.048;8.732;2023-02-22T00:25:59;101750.84;;;9.25;100.00
43745;BME280;29359;53.048;8.732;2023-02-22T00:28:01;101756.09;;;9.25;100.00
43745;BME280;29359;53.048;8.732;2023-02-22T00:30:05;101746.47;;;9.24;100.00
43745;BME280;29359;53.048;8.732;2023-02-22T00:32:07;101745.59;;;9.24;100.00
43745;BME280;29359;53.048;8.732;2023-02-22T00:34:09;101742.06;;;9.23;100.00
43745;BME280;29359;53.048;8.732;2023-02-22T00:36:12;101749.13;;;9.21;100.00
43745;BME280;29359;53.048;8.732;2023-02-22T00:38:16;101744.75;;;9.19;100.00
43745;BME280;29359;53.048;8.732;2023-02-22T00:40:21;101740.38;;;9.18;100.00
43745;BME280;29359;53.048;8.732;2023-02-22T00:42:23;101737.72;;;9.18;100.00
43745;BME280;29359;53.048;8.732;2023-02-22T00:44:24;101742.13;;;9.17;100.00
43745;BME280;29359;53.048;8.732;2023-02-22T00:46:27;101742.13;;;9.17;100.00
43745;BME280;29359;53.048;8.732;2023-02-22T00:48:29;101735.97;;;9.17;100.00
43745;BME280;29359;53.048;8.732;2023-02-22T00:50:31;101735.97;;;9.17;100.00
43745;BME280;29359;53.048;8.732;2023-02-22T00:52:33;101735.97;;;9.17;100.00
43745;BME280;29359;53.048;8.732;2023-02-22T00:54:36;101729.84;;;9.15;100.00
43745;BME280;29359;53.048;8.732;2023-02-22T00:56:37;101730.75;;;9.10;100.00
43745;BME280;29359;53.048;8.732;2023-02-22T00:58:39;101729.88;;;9.08;100.00
43745;BME280;29359;53.048;8.732;2023-02-22T01:00:42;101729.00;;;9.08;100.00
43745;BME280;29359;53.048;8.732;2023-02-22T01:02:43;101719.34;;;9.08;100.00
43745;BME280;29359;53.048;8.732;2023-02-22T01:04:45;101726.38;;;9.08;100.00
43745;BME280;29359;53.048;8.732;2023-02-22T01:06:47;101717.59;;;9.07;100.00
43745;BME280;29359;53.048;8.732;2023-02-22T01:08:48;101721.97;;;9.07;100.00
43745;BME280;29359;53.048;8.732;2023-02-22T01:10:50;101719.34;;;9.05;100.00
43745;BME280;29359;53.048;8.732;2023-02-22T01:12:53;101715.84;;;9.05;100.00
43745;BME280;29359;53.048;8.732;2023-02-22T01:14:57;101712.34;;;9.04;100.00
43745;BME280;29359;53.048;8.732;2023-02-22T01:16:58;101711.50;;;9.01;100.00
43745;BME280;29359;53.048;8.732;2023-02-22T01:19:00;101712.38;;;9.00;100.00
43745;BME280;29359;53.048;8.732;2023-02-22T01:21:05;101705.38;;;8.97;100.00
43745;BME280;29359;53.048;8.732;2023-02-22T01:23:06;101707.13;;;8.97;100.00
43745;BME280;29359;53.048;8.732;2023-02-22T01:25:09;101708.91;;;8.96;100.00
43745;BME280;29359;53.048;8.732;2023-02-22T01:27:12;101709.78;;;8.95;100.00
43745;BME280;29359;53.048;8.732;2023-02-22T01:29:15;101703.66;;;8.95;100.00
43745;BME280;29359;53.048;8.732;2023-02-22T01:31:16;101700.13;;;8.94;100.00
43745;BME280;29359;53.048;8.732;2023-02-22T01:33:18;101701.00;;;8.96;100.00
43745;BME280;29359;53.048;8.732;2023-02-22T01:35:23;101700.13;;;8.96;100.00
43745;BME280;29359;53.048;8.732;2023-02-22T01:37:25;101694.84;;;8.96;100.00
43745;BME280;29359;53.048;8.732;2023-02-22T01:39:27;101693.97;;;8.95;100.00
43745;BME280;29359;53.048;8.732;2023-02-22T01:41:29;101687.84;;;8.95;100.00
43745;BME280;29359;53.048;8.732;2023-02-22T01:43:31;101687.00;;;8.91;100.00
43745;BME280;29359;53.048;8.732;2023-02-22T01:45:37;101683.50;;;8.89;100.00
43745;BME280;29359;53.048;8.732;2023-02-22T01:47:41;101689.66;;;8.88;100.00
43745;BME280;29359;53.048;8.732;2023-02-22T01:49:48;101677.34;;;8.90;100.00
43745;BME280;29359;53.048;8.732;2023-02-22T01:51:54;101684.38;;;8.90;100.00
43745;BME280;29359;53.048;8.732;2023-02-22T01:54:06;101672.09;;;8.87;100.00
43745;BME280;29359;53.048;8.732;2023-02-22T01:56:11;101680.03;;;8.84;100.00
43745;BME280;29359;53.048;8.732;2023-02-22T01:58:15;101680.03;;;8.84;100.00
43745;BME280;29359;53.048;8.732;2023-02-22T02:00:19;101674.75;;;8.84;100.00
43745;BME280;29359;53.048;8.732;2023-02-22T02:02:22;101673.03;;;8.83;100.00
43745;BME280;29359;53.048;8.732;2023-02-22T02:04:26;101673.91;;;8.84;100.00
43745;BME280;29359;53.048;8.732;2023-02-22T02:06:31;101679.16;;;8.85;100.00
43745;BME280;29359;53.048;8.732;2023-02-22T02:08:43;101673.00;;;8.85;100.00
43745;BME280;29359;53.048;8.732;2023-02-22T02:10:50;101678.28;;;8.85;100.00
43745;BME280;29359;53.048;8.732;2023-02-22T02:12:54;101659.84;;;8.85;100.00
43745;BME280;29359;53.048;8.732;2023-02-22T02:17:23;101667.78;;;8.80;100.00
43745;BME280;29359;53.048;8.732;2023-02-22T02:21:46;101663.41;;;8.77;100.00
43745;BME280;29359;53.048;8.732;2023-02-22T02:33:53;101648.50;;;8.75;100.00
43745;BME280;29359;53.048;8.732;2023-02-22T02:38:46;101653.75;;;8.76;100.00
43745;BME280;29359;53.048;8.732;2023-02-22T02:45:30;101641.50;;;8.75;100.00
43745;BME280;29359;53.048;8.732;2023-02-22T02:47:39;101638.00;;;8.73;100.00
43745;BME280;29359;53.048;8.732;2023-02-22T02:49:55;101636.22;;;8.74;100.00
43745;BME280;29359;53.048;8.732;2023-02-22T02:51:59;101630.97;;;8.74;100.00
43745;BME280;29359;53.048;8.732;2023-02-22T02:54:03;101627.47;;;8.73;100.00
43745;BME280;29359;53.048;8.732;2023-02-22T02:56:06;101637.13;;;8.73;100.00
43745;BME280;29359;53.048;8.732;2023-02-22T02:58:07;101635.34;;;8.73;100.00
43745;BME280;29359;53.048;8.732;2023-02-22T03:00:15;101630.97;;;8.74;100.00
43745;BME280;29359;53.048;8.732;2023-02-22T03:14:10;101616.97;;;8.66;100.00
43745;BME280;29359;53.048;8.732;2023-02-22T03:18:28;101612.56;;;8.66;100.00
43745;BME280;29359;53.048;8.732;2023-02-22T03:20:42;101609.94;;;8.66;100.00
43745;BME280;29359;53.048;8.732;2023-02-22T03:22:56;101603.81;;;8.66;100.00
43745;BME280;29359;53.048;8.732;2023-02-22T03:25:39;101595.91;;;8.64;100.00
43745;BME280;29359;53.048;8.732;2023-02-22T03:27:50;101601.19;;;8.63;100.00
43745;BME280;29359;53.048;8.732;2023-02-22T03:29:56;101601.19;;;8.63;100.00
43745;BME280;29359;53.048;8.732;2023-02-22T03:32:04;101603.84;;;8.61;100.00
43745;BME280;29359;53.048;8.732;2023-02-22T03:34:13;101599.47;;;8.59;100.00
43745;BME280;29359;53.048;8.732;2023-02-22T03:36:21;101590.69;;;8.60;100.00
43745;BME280;29359;53.048;8.732;2023-02-22T03:38:26;101589.84;;;8.58;100.00
43745;BME280;29359;53.048;8.732;2023-02-22T03:40:32;101595.97;;;8.57;100.00
43745;BME280;29359;53.048;8.732;2023-02-22T03:42:36;101587.22;;;8.55;100.00
43745;BME280;29359;53.048;8.732;2023-02-22T03:44:40;101589.91;;;8.50;99.97
43745;BME280;29359;53.048;8.732;2023-02-22T03:46:45;101590.78;;;8.47;100.00
43745;BME280;29359;53.048;8.732;2023-02-22T03:48:57;101604.84;;;8.45;100.00
43745;BME280;29359;53.048;8.732;2023-02-22T03:51:00;101602.25;;;8.42;100.00
43745;BME280;29359;53.048;8.732;2023-02-22T03:53:04;101600.50;;;8.38;99.92
43745;BME280;29359;53.048;8.732;2023-02-22T03:55:09;101596.16;;;8.35;100.00
43745;BME280;29359;53.048;8.732;2023-02-22T03:57:16;101611.06;;;8.32;99.95
43745;BME280;29359;53.048;8.732;2023-02-22T03:59:22;101606.69;;;8.28;99.99
43745;BME280;29359;53.048;8.732;2023-02-22T04:01:27;101606.69;;;8.23;100.00
43745;BME280;29359;53.048;8.732;2023-02-22T04:03:29;101610.22;;;8.19;100.00
43745;BME280;29359;53.048;8.732;2023-02-22T04:05:30;101600.63;;;8.13;100.00
43745;BME280;29359;53.048;8.732;2023-02-22T04:07:32;101605.03;;;8.10;100.00
43745;BME280;29359;53.048;8.732;2023-02-22T04:09:33;101600.69;;;8.04;100.00
43745;BME280;29359;53.048;8.732;2023-02-22T04:11:35;101602.44;;;8.01;100.00
43745;BME280;29359;53.048;8.732;2023-02-22T04:13:36;101601.59;;;7.96;100.00
43745;BME280;29359;53.048;8.732;2023-02-22T04:15:38;101604.25;;;7.93;100.00
43745;BME280;29359;53.048;8.732;2023-02-22T04:17:40;101598.16;;;7.87;100.00
43745;BME280;29359;53.048;8.732;2023-02-22T04:19:41;101601.66;;;7.83;100.00
43745;BME280;29359;53.048;8.732;2023-02-22T04:21:45;101599.03;;;7.79;100.00
43745;BME280;29359;53.048;8.732;2023-02-22T04:23:46;101601.69;;;7.76;100.00
43745;BME280;29359;53.048;8.732;2023-02-22T04:25:48;101606.94;;;7.71;100.00
43745;BME280;29359;53.048;8.732;2023-02-22T04:27:50;101596.47;;;7.67;100.00
43745;BME280;29359;53.048;8.732;2023-02-22T04:29:52;101602.63;;;7.63;100.00
43745;BME280;29359;53.048;8.732;2023-02-22T04:31:53;101598.25;;;7.59;100.00
43745;BME280;29359;53.048;8.732;2023-02-22T04:33:55;101598.28;;;7.54;100.00
43745;BME280;29359;53.048;8.732;2023-02-22T04:35:56;101602.66;;;7.50;100.00
43745;BME280;29359;53.048;8.732;2023-02-22T04:37:58;101606.19;;;7.46;100.00
43745;BME280;29359;53.048;8.732;2023-02-22T04:40:00;101599.19;;;7.42;100.00
43745;BME280;29359;53.048;8.732;2023-02-22T04:42:02;101603.56;;;7.39;100.00
43745;BME280;29359;53.048;8.732;2023-02-22T04:44:03;101599.19;;;7.36;100.00
43745;BME280;29359;53.048;8.732;2023-02-22T04:46:05;101594.81;;;7.34;100.00
43745;BME280;29359;53.048;8.732;2023-02-22T04:48:06;101599.19;;;7.30;100.00
43745;BME280;29359;53.048;8.732;2023-02-22T04:50:09;101595.69;;;7.28;100.00
43745;BME280;29359;53.048;8.732;2023-02-22T04:52:11;101591.31;;;7.27;100.00
43745;BME280;29359;53.048;8.732;2023-02-22T04:54:13;101591.34;;;7.25;100.00
43745;BME280;29359;53.048;8.732;2023-02-22T04:56:18;101584.34;;;7.23;100.00
43745;BME280;29359;53.048;8.732;2023-02-22T04:58:20;101580.84;;;7.19;100.00
43745;BME280;29359;53.048;8.732;2023-02-22T05:00:22;101590.47;;;7.19;100.00
43745;BME280;29359;53.048;8.732;2023-02-22T05:02:24;101589.59;;;7.18;100.00
43745;BME280;29359;53.048;8.732;2023-02-22T05:04:25;101587.84;;;7.17;100.00
43745;BME280;29359;53.048;8.732;2023-02-22T05:06:27;101586.97;;;7.18;100.00
43745;BME280;29359;53.048;8.732;2023-02-22T05:08:28;101588.72;;;7.19;100.00
43745;BME280;29359;53.048;8.732;2023-02-22T05:10:30;101585.22;;;7.19;100.00
43745;BME280;29359;53.048;8.732;2023-02-22T05:12:31;101580.84;;;7.19;100.00
43745;BME280;29359;53.048;8.732;2023-02-22T05:14:33;101582.59;;;7.22;100.00
43745;BME280;29359;53.048;8.732;2023-02-22T05:16:35;101580.84;;;7.22;100.00
43745;BME280;29359;53.048;8.732;2023-02-22T05:18:36;101581.69;;;7.24;100.00
43745;BME280;29359;53.048;8.732;2023-02-22T05:20:38;101575.59;;;7.22;100.00
43745;BME280;29359;53.048;8.732;2023-02-22T05:22:40;101579.06;;;7.24;100.00
43745;BME280;29359;53.048;8.732;2023-02-22T05:24:41;101565.97;;;7.21;100.00
43745;BME280;29359;53.048;8.732;2023-02-22T05:26:45;101572.97;;;7.19;100.00
43745;BME280;29359;53.048;8.732;2023-02-22T05:28:46;101573.84;;;7.18;100.00
43745;BME280;29359;53.048;8.732;2023-02-22T05:30:48;101570.34;;;7.18;100.00
43745;BME280;29359;53.048;8.732;2023-02-22T05:32:50;101566.84;;;7.14;100.00
43745;BME280;29359;53.048;8.732;2023-02-22T05:34:51;101562.47;;;7.12;100.00
43745;BME280;29359;53.048;8.732;2023-02-22T05:36:53;101559.88;;;7.10;100.00
43745;BME280;29359;53.048;8.732;2023-02-22T05:38:55;101561.63;;;7.11;100.00
43745;BME280;29359;53.048;8.732;2023-02-22T05:40:56;101552.88;;;7.09;100.00
43745;BME280;29359;53.048;8.732;2023-02-22T05:42:59;101553.75;;;7.08;100.00
43745;BME280;29359;53.048;8.732;2023-02-22T05:45:02;101551.13;;;7.08;100.00
43745;BME280;29359;53.048;8.732;2023-02-22T05:47:04;101541.50;;;7.06;100.00
43745;BME280;29359;53.048;8.732;2023-02-22T05:49:05;101543.25;;;7.04;100.00
43745;BME280;29359;53.048;8.732;2023-02-22T05:51:07;101545.88;;;7.01;100.00
43745;BME280;29359;53.048;8.732;2023-02-22T05:53:10;101539.78;;;6.99;100.00
43745;BME280;29359;53.048;8.732;2023-02-22T05:55:13;101545.03;;;6.99;100.00
43745;BME280;29359;53.048;8.732;2023-02-22T05:57:15;101545.03;;;6.99;100.00
43745;BME280;29359;53.048;8.732;2023-02-22T05:59:16;101534.53;;;6.96;100.00
43745;BME280;29359;53.048;8.732;2023-02-22T06:01:18;101538.03;;;6.95;100.00
43745;BME280;29359;53.048;8.732;2023-02-22T06:03:20;101534.50;;;6.92;100.00
43745;BME280;29359;53.048;8.732;2023-02-22T06:05:22;101534.50;;;6.91;100.00
43745;BME280;29359;53.048;8.732;2023-02-22T06:07:24;101533.63;;;6.89;100.00
43745;BME280;29359;53.048;8.732;2023-02-22T06:09:26;101538.00;;;6.88;100.00
43745;BME280;29359;53.048;8.732;2023-02-22T06:11:27;101528.38;;;6.87;100.00
43745;BME280;29359;53.048;8.732;2023-02-22T06:13:29;101535.38;;;6.87;100.00
43745;BME280;29359;53.048;8.732;2023-02-22T06:15:30;101531.00;;;6.86;100.00
43745;BME280;29359;53.048;8.732;2023-02-22T06:17:32;101529.28;;;6.85;100.00
43745;BME280;29359;53.048;8.732;2023-02-22T06:19:33;101532.78;;;6.84;100.00
43745;BME280;29359;53.048;8.732;2023-02-22T06:21:35;101527.53;;;6.84;100.00
43745;BME280;29359;53.048;8.732;2023-02-22T06:23:36;101526.66;;;6.85;100.00
43745;BME280;29359;53.048;8.732;2023-02-22T06:25:38;101527.53;;;6.84;100.00
43745;BME280;29359;53.048;8.732;2023-02-22T06:27:39;101524.91;;;6.84;100.00
43745;BME280;29359;53.048;8.732;2023-02-22T06:29:44;101522.28;;;6.85;100.00
43745;BME280;29359;53.048;8.732;2023-02-22T06:31:47;101526.66;;;6.86;100.00
43745;BME280;29359;53.048;8.732;2023-02-22T06:33:48;101519.66;;;6.85;100.00
43745;BME280;29359;53.048;8.732;2023-02-22T06:35:50;101527.50;;;6.87;100.00
43745;BME280;29359;53.048;8.732;2023-02-22T06:37:51;101524.03;;;6.86;100.00
43745;BME280;29359;53.048;8.732;2023-02-22T06:39:53;101517.88;;;6.87;100.00
43745;BME280;29359;53.048;8.732;2023-02-22T06:41:54;101530.13;;;6.88;100.00
43745;BME280;29359;53.048;8.732;2023-02-22T06:43:58;101517.88;;;6.89;100.00
43745;BME280;29359;53.048;8.732;2023-02-22T06:45:59;101517.88;;;6.90;100.00
43745;BME280;29359;53.048;8.732;2023-02-22T06:48:01;101522.25;;;6.90;100.00
43745;BME280;29359;53.048;8.732;2023-02-22T06:50:02;101524.00;;;6.92;100.00
43745;BME280;29359;53.048;8.732;2023-02-22T06:52:05;101521.41;;;6.94;100.00
43745;BME280;29359;53.048;8.732;2023-02-22T06:54:07;101527.53;;;6.95;100.00
43745;BME280;29359;53.048;8.732;2023-02-22T06:56:08;101524.91;;;6.96;100.00
43745;BME280;29359;53.048;8.732;2023-02-22T06:58:10;101523.16;;;6.98;100.00
43745;BME280;29359;53.048;8.732;2023-02-22T07:00:14;101521.38;;;6.99;100.00
43745;BME280;29359;53.048;8.732;2023-02-22T07:02:16;101521.38;;;7.02;100.00
43745;BME280;29359;53.048;8.732;2023-02-22T07:04:17;101517.00;;;7.04;100.00
43745;BME280;29359;53.048;8.732;2023-02-22T07:06:19;101529.25;;;7.06;100.00
43745;BME280;29359;53.048;8.732;2023-02-22T07:08:21;101528.34;;;7.10;100.00
43745;BME280;29359;53.048;8.732;2023-02-22T07:10:26;101527.47;;;7.13;100.00
43745;BME280;29359;53.048;8.732;2023-02-22T07:12:28;101524.84;;;7.14;100.00
43745;BME280;29359;53.048;8.732;2023-02-22T07:14:29;101532.72;;;7.17;100.00
43745;BME280;29359;53.048;8.732;2023-02-22T07:16:31;101528.31;;;7.19;100.00
43745;BME280;29359;53.048;8.732;2023-02-22T07:18:32;101525.69;;;7.22;100.00
43745;BME280;29359;53.048;8.732;2023-02-22T07:20:34;101523.91;;;7.26;100.00
43745;BME280;29359;53.048;8.732;2023-02-22T07:22:36;101518.66;;;7.29;100.00
43745;BME280;29359;53.048;8.732;2023-02-22T07:24:37;101525.66;;;7.32;100.00
43745;BME280;29359;53.048;8.732;2023-02-22T07:26:41;101521.25;;;7.34;100.00
43745;BME280;29359;53.048;8.732;2023-02-22T07:28:42;101525.63;;;7.35;100.00
43745;BME280;29359;53.048;8.732;2023-02-22T07:30:44;101528.25;;;7.35;100.00
43745;BME280;29359;53.048;8.732;2023-02-22T07:32:46;101515.13;;;7.33;99.90
43745;BME280;29359;53.048;8.732;2023-02-22T07:34:47;101516.00;;;7.34;100.00
43745;BME280;29359;53.048;8.732;2023-02-22T07:36:49;101518.63;;;7.34;99.50
43745;BME280;29359;53.048;8.732;2023-02-22T07:38:50;101520.38;;;7.35;100.00
43745;BME280;29359;53.048;8.732;2023-02-22T07:40:52;101516.88;;;7.36;99.95
43745;BME280;29359;53.048;8.732;2023-02-22T07:44:58;101525.66;;;7.38;99.34
43745;BME280;29359;53.048;8.732;2023-02-22T07:46:59;101519.53;;;7.39;99.65
43745;BME280;29359;53.048;8.732;2023-02-22T07:49:02;101515.13;;;7.41;99.64
43745;BME280;29359;53.048;8.732;2023-02-22T07:51:04;101519.50;;;7.40;99.32
43745;BME280;29359;53.048;8.732;2023-02-22T07:53:19;101519.50;;;7.42;99.80
43745;BME280;29359;53.048;8.732;2023-02-22T07:55:24;101511.63;;;7.43;99.84
43745;BME280;29359;53.048;8.732;2023-02-22T07:57:26;101511.59;;;7.45;99.11
43745;BME280;29359;53.048;8.732;2023-02-22T07:59:27;101520.34;;;7.47;99.45
43745;BME280;29359;53.048;8.732;2023-02-22T08:01:29;101517.75;;;7.44;99.15
43745;BME280;29359;53.048;8.732;2023-02-22T08:03:33;101512.50;;;7.44;99.98
43745;BME280;29359;53.048;8.732;2023-02-22T08:05:38;101514.25;;;7.45;99.84
43745;BME280;29359;53.048;8.732;2023-02-22T08:07:40;101517.72;;;7.47;99.71
43745;BME280;29359;53.048;8.732;2023-02-22T08:09:43;101516.84;;;7.49;99.38
43745;BME280;29359;53.048;8.732;2023-02-22T08:11:44;101510.69;;;7.52;99.96
43745;BME280;29359;53.048;8.732;2023-02-22T08:13:46;101505.44;;;7.52;99.34
43745;BME280;29359;53.048;8.732;2023-02-22T08:15:50;101509.81;;;7.54;99.00
43745;BME280;29359;53.048;8.732;2023-02-22T08:17:52;101508.06;;;7.55;98.66
43745;BME280;29359;53.048;8.732;2023-02-22T08:19:54;101501.94;;;7.54;98.75
43745;BME280;29359;53.048;8.732;2023-02-22T08:21:55;101502.81;;;7.53;98.55
43745;BME280;29359;53.048;8.732;2023-02-22T08:23:56;101505.44;;;7.53;98.37
43745;BME280;29359;53.048;8.732;2023-02-22T08:26:09;101505.44;;;7.55;99.20
43745;BME280;29359;53.048;8.732;2023-02-22T08:28:13;101505.44;;;7.55;98.73
43745;BME280;29359;53.048;8.732;2023-02-22T08:30:21;101501.03;;;7.55;98.94
43745;BME280;29359;53.048;8.732;2023-02-22T08:32:23;101498.41;;;7.55;98.90
43745;BME280;29359;53.048;8.732;2023-02-22T08:34:25;101502.78;;;7.56;98.95
43745;BME280;29359;53.048;8.732;2023-02-22T08:36:27;101500.16;;;7.58;98.98
43745;BME280;29359;53.048;8.732;2023-02-22T08:38:30;101500.16;;;7.58;99.08
43745;BME280;29359;53.048;8.732;2023-02-22T08:40:35;101498.41;;;7.59;98.87
43745;BME280;29359;53.048;8.732;2023-02-22T08:42:37;101499.25;;;7.61;98.68
43745;BME280;29359;53.048;8.732;2023-02-22T08:44:39;101499.25;;;7.64;99.16
43745;BME280;29359;53.048;8.732;2023-02-22T08:46:41;101500.97;;;7.68;98.87
43745;BME280;29359;53.048;8.732;2023-02-22T08:49:00;101500.97;;;7.66;98.84
43745;BME280;29359;53.048;8.732;2023-02-22T08:51:03;101493.09;;;7.68;99.08
43745;BME280;29359;53.048;8.732;2023-02-22T08:53:04;101497.44;;;7.72;99.45
43745;BME280;29359;53.048;8.732;2023-02-22T08:55:06;101491.31;;;7.71;99.67
43745;BME280;29359;53.048;8.732;2023-02-22T08:57:08;101500.06;;;7.73;100.00
43745;BME280;29359;53.048;8.732;2023-02-22T08:59:09;101493.03;;;7.77;100.00
43745;BME280;29359;53.048;8.732;2023-02-22T09:01:11;101482.50;;;7.81;100.00
43745;BME280;29359;53.048;8.732;2023-02-22T09:03:15;101484.25;;;7.82;100.00
43745;BME280;29359;53.048;8.732;2023-02-22T09:05:18;101477.25;;;7.84;99.73
43745;BME280;29359;53.048;8.732;2023-02-22T09:07:20;101485.97;;;7.86;100.00
43745;BME280;29359;53.048;8.732;2023-02-22T09:09:21;101485.94;;;7.93;99.88
43745;BME280;29359;53.048;8.732;2023-02-22T09:11:23;101478.88;;;7.98;99.67
43745;BME280;29359;53.048;8.732;2023-02-22T09:13:24;101477.09;;;8.03;100.00
43745;BME280;29359;53.048;8.732;2023-02-22T09:15:26;101482.31;;;8.09;99.42
43745;BME280;29359;53.048;8.732;2023-02-22T09:17:28;101473.50;;;8.13;99.52
43745;BME280;29359;53.048;8.732;2023-02-22T09:19:29;101476.13;;;8.16;98.61
43745;BME280;29359;53.048;8.732;2023-02-22T09:21:31;101476.09;;;8.19;98.27
43745;BME280;29359;53.048;8.732;2023-02-22T09:23:32;101471.69;;;8.19;98.37
43745;BME280;29359;53.048;8.732;2023-02-22T09:25:35;101475.19;;;8.26;98.53
43745;BME280;29359;53.048;8.732;2023-02-22T09:27:36;101473.38;;;8.34;98.46
43745;BME280;29359;53.048;8.732;2023-02-22T09:29:39;101468.06;;;8.40;98.32
43745;BME280;29359;53.048;8.732;2023-02-22T09:31:40;101470.66;;;8.43;98.46
43745;BME280;29359;53.048;8.732;2023-02-22T09:33:42;101470.63;;;8.48;98.37
43745;BME280;29359;53.048;8.732;2023-02-22T09:35:47;101467.91;;;8.57;98.47
43745;BME280;29359;53.048;8.732;2023-02-22T09:37:50;101473.97;;;8.64;97.80
43745;BME280;29359;53.048;8.732;2023-02-22T09:39:51;101474.81;;;8.69;97.69
43745;BME280;29359;53.048;8.732;2023-02-22T09:42:11;101473.84;;;8.77;97.54
43745;BME280;29359;53.048;8.732;2023-02-22T09:44:36;101484.31;;;8.84;97.24
43745;BME280;29359;53.048;8.732;2023-02-22T09:46:39;101480.78;;;8.86;96.96
43745;BME280;29359;53.048;8.732;2023-02-22T09:49:05;101484.25;;;8.90;96.76
43745;BME280;29359;53.048;8.732;2023-02-22T09:51:14;101472.72;;;8.98;97.35
43745;BME280;29359;53.048;8.732;2023-02-22T09:55:48;101474.38;;;9.08;96.29
43745;BME280;29359;53.048;8.732;2023-02-22T09:57:52;101471.72;;;9.13;96.34
43745;BME280;29359;53.048;8.732;2023-02-22T10:00:02;101464.59;;;9.20;95.02
43745;BME280;29359;53.048;8.732;2023-02-22T10:02:28;101462.75;;;9.26;95.15
43745;BME280;29359;53.048;8.732;2023-02-22T10:05:36;101453.91;;;9.32;95.53
43745;BME280;29359;53.048;8.732;2023-02-22T10:09:27;101451.09;;;9.44;94.76
43745;BME280;29359;53.048;8.732;2023-02-22T10:11:35;101447.53;;;9.48;94.66
43745;BME280;29359;53.048;8.732;2023-02-22T10:16:15;101442.16;;;9.57;93.67
43745;BME280;29359;53.048;8.732;2023-02-22T10:20:56;101437.53;;;9.71;93.31
43745;BME280;29359;53.048;8.732;2023-02-22T10:25:17;101434.78;;;9.79;93.20
43745;BME280;29359;53.048;8.732;2023-02-22T10:27:26;101438.16;;;9.87;92.74
43745;BME280;29359;53.048;8.732;2023-02-22T10:29:39;101434.56;;;9.93;92.39
43745;BME280;29359;53.048;8.732;2023-02-22T10:31:45;101431.03;;;9.94;92.93
43745;BME280;29359;53.048;8.732;2023-02-22T10:34:01;101423.91;;;10.00;92.59
43745;BME280;29359;53.048;8.732;2023-02-22T10:36:03;101427.34;;;10.05;91.85
43745;BME280;29359;53.048;8.732;2023-02-22T10:38:16;101428.97;;;10.13;91.82
43745;BME280;29359;53.048;8.732;2023-02-22T10:40:22;101429.88;;;10.12;91.39
43745;BME280;29359;53.048;8.732;2023-02-22T10:42:32;101425.53;;;10.09;91.40
43745;BME280;29359;53.048;8.732;2023-02-22T10:44:35;101426.25;;;10.17;91.68
43745;BME280;29359;53.048;8.732;2023-02-22T10:46:38;101423.66;;;10.16;90.90
43745;BME280;29359;53.048;8.732;2023-02-22T10:48:44;101428.00;;;10.18;91.23
43745;BME280;29359;53.048;8.732;2023-02-22T10:50:47;101418.19;;;10.28;91.20
43745;BME280;29359;53.048;8.732;2023-02-22T10:52:50;101416.25;;;10.37;90.72
43745;BME280;29359;53.048;8.732;2023-02-22T10:54:54;101410.88;;;10.44;90.56
43745;BME280;29359;53.048;8.732;2023-02-22T10:57:20;101397.38;;;10.59;90.46
43745;BME280;29359;53.048;8.732;2023-02-22T10:59:37;101391.75;;;10.77;90.18
43745;BME280;29359;53.048;8.732;2023-02-22T11:01:39;101398.44;;;10.95;89.49
43745;BME280;29359;53.048;8.732;2023-02-22T11:03:41;101390.28;;;11.06;88.34
43745;BME280;29359;53.048;8.732;2023-02-22T11:05:43;101391.00;;;11.14;88.16
43745;BME280;29359;53.048;8.732;2023-02-22T11:07:44;101393.31;;;11.29;87.77
43745;BME280;29359;53.048;8.732;2023-02-22T11:09:50;101395.53;;;11.47;87.62
43745;BME280;29359;53.048;8.732;2023-02-22T11:12:14;101394.91;;;11.75;87.06
43745;BME280;29359;53.048;8.732;2023-02-22T11:14:27;101389.94;;;11.98;85.42
43745;BME280;29359;53.048;8.732;2023-02-22T11:16:33;101396.66;;;12.11;84.30
43745;BME280;29359;53.048;8.732;2023-02-22T11:18:36;101388.41;;;12.25;83.59
43745;BME280;29359;53.048;8.732;2023-02-22T11:20:38;101384.16;;;12.50;82.59
43745;BME280;29359;53.048;8.732;2023-02-22T11:22:40;101384.47;;;12.72;80.58
43745;BME280;29359;53.048;8.732;2023-02-22T11:24:48;101382.09;;;12.93;80.86
43745;BME280;29359;53.048;8.732;2023-02-22T11:26:57;101368.16;;;13.17;80.03
43745;BME280;29359;53.048;8.732;2023-02-22T11:29:09;101377.94;;;13.44;79.89
43745;BME280;29359;53.048;8.732;2023-02-22T11:31:22;101374.00;;;13.84;78.54
43745;BME280;29359;53.048;8.732;2023-02-22T11:33:25;101370.47;;;14.10;77.03
43745;BME280;29359;53.048;8.732;2023-02-22T11:35:37;101370.22;;;14.18;75.06
43745;BME280;29359;53.048;8.732;2023-02-22T11:37:39;101371.72;;;14.00;74.28
43745;BME280;29359;53.048;8.732;2023-02-22T11:39:41;101364.16;;;13.88;76.12
43745;BME280;29359;53.048;8.732;2023-02-22T11:41:44;101360.13;;;13.76;75.78